createdAt,value
2018-01-16T00:00:49.255Z,966.55
2018-01-16T00:01:49.169Z,966.53
2018-01-16T00:02:49.080Z,966.53
2018-01-16T00:03:48.992Z,966.48
2018-01-16T00:04:48.906Z,966.48
2018-01-16T00:05:48.825Z,966.51
2018-01-16T00:06:48.734Z,966.55
2018-01-16T00:07:48.643Z,966.54
2018-01-16T00:08:48.557Z,966.49
2018-01-16T00:09:48.469Z,966.45
2018-01-16T00:10:48.381Z,966.41
2018-01-16T00:11:48.293Z,966.40
2018-01-16T00:12:48.210Z,966.46
2018-01-16T00:13:48.117Z,966.42
2018-01-16T00:14:48.029Z,966.44
2018-01-16T00:15:47.944Z,966.44
2018-01-16T00:16:47.854Z,966.53
2018-01-16T00:17:47.767Z,966.45
2018-01-16T00:18:47.683Z,966.38
2018-01-16T00:19:47.595Z,966.32
2018-01-16T00:20:47.505Z,966.37
2018-01-16T00:21:47.421Z,966.39
2018-01-16T00:22:47.346Z,966.39
2018-01-16T00:23:47.244Z,966.42
2018-01-16T00:24:47.162Z,966.30
2018-01-16T00:25:47.068Z,966.30
2018-01-16T00:26:46.980Z,966.26
2018-01-16T00:27:46.893Z,966.25
2018-01-16T00:28:46.804Z,966.23
2018-01-16T00:29:46.730Z,966.24
2018-01-16T00:30:46.678Z,966.17
2018-01-16T00:31:46.543Z,966.11
2018-01-16T00:32:46.457Z,966.09
2018-01-16T00:33:46.366Z,966.08
2018-01-16T00:34:46.280Z,966.10
2018-01-16T00:35:46.193Z,966.10
2018-01-16T00:36:46.102Z,966.02
2018-01-16T00:37:46.026Z,966.09
2018-01-16T00:38:45.928Z,966.09
2018-01-16T00:39:45.841Z,966.11
2018-01-16T00:40:45.753Z,966.12
2018-01-16T00:41:45.664Z,966.14
2018-01-16T00:42:45.578Z,966.16
2018-01-16T00:43:45.494Z,966.13
2018-01-16T00:44:45.403Z,966.15
2018-01-16T00:45:45.317Z,966.07
2018-01-16T00:46:45.226Z,966.07
2018-01-16T00:47:45.143Z,966.09
2018-01-16T00:48:45.055Z,966.02
2018-01-16T00:49:44.966Z,966.06
2018-01-16T00:50:44.878Z,965.93
2018-01-16T00:51:44.789Z,965.90
2018-01-16T00:52:44.702Z,965.88
2018-01-16T00:53:44.614Z,965.86
2018-01-16T00:54:44.527Z,965.88
2018-01-16T00:55:44.440Z,965.86
2018-01-16T00:56:44.355Z,965.83
2018-01-16T00:57:44.263Z,965.85
2018-01-16T00:58:44.179Z,965.87
2018-01-16T00:59:44.089Z,965.90
2018-01-16T01:00:44.003Z,965.87
2018-01-16T01:01:43.914Z,965.87
2018-01-16T01:02:43.826Z,965.79
2018-01-16T01:03:43.740Z,965.82
2018-01-16T01:04:43.652Z,965.69
2018-01-16T01:05:43.576Z,965.69
2018-01-16T01:06:43.478Z,965.66
2018-01-16T01:07:43.391Z,965.60
2018-01-16T01:08:43.302Z,965.58
2018-01-16T01:09:43.234Z,965.55
2018-01-16T01:10:43.126Z,965.55
2018-01-16T01:11:43.039Z,965.50
2018-01-16T01:12:42.950Z,965.46
2018-01-16T01:13:42.864Z,965.47
2018-01-16T01:14:42.778Z,965.44
2018-01-16T01:15:42.688Z,965.46
2018-01-16T01:16:42.601Z,965.42
2018-01-16T01:17:42.514Z,965.39
2018-01-16T01:18:42.428Z,965.32
2018-01-16T01:19:42.339Z,965.38
2018-01-16T01:20:42.250Z,965.42
2018-01-16T01:21:42.161Z,965.38
2018-01-16T01:22:42.076Z,965.30
2018-01-16T01:23:42.004Z,965.33
2018-01-16T01:24:41.902Z,965.35
2018-01-16T01:25:41.813Z,965.37
2018-01-16T01:26:41.729Z,965.32
2018-01-16T01:27:41.641Z,965.32
2018-01-16T01:28:41.550Z,965.28
2018-01-16T01:29:41.462Z,965.31
2018-01-16T01:30:41.377Z,965.30
2018-01-16T01:31:41.288Z,965.30
2018-01-16T01:32:41.201Z,965.32
2018-01-16T01:33:41.116Z,965.25
2018-01-16T01:34:41.026Z,965.21
2018-01-16T01:35:40.938Z,965.18
2018-01-16T01:36:40.850Z,965.19
2018-01-16T01:37:40.760Z,965.27
2018-01-16T01:38:40.674Z,965.25
2018-01-16T01:39:40.587Z,965.22
2018-01-16T01:40:40.497Z,965.08
2018-01-16T01:41:40.412Z,965.07
2018-01-16T01:42:40.326Z,965.01
2018-01-16T01:43:40.237Z,964.99
2018-01-16T01:44:40.147Z,964.95
2018-01-16T01:45:40.061Z,964.93
2018-01-16T01:46:39.975Z,964.87
2018-01-16T01:47:39.887Z,964.82
2018-01-16T01:48:39.799Z,964.79
2018-01-16T01:49:39.710Z,964.85
2018-01-16T01:50:39.624Z,964.81
2018-01-16T01:51:39.536Z,964.84
2018-01-16T01:52:39.446Z,964.76
2018-01-16T01:53:39.361Z,964.74
2018-01-16T01:54:39.272Z,964.74
2018-01-16T01:55:39.184Z,964.72
2018-01-16T01:56:39.108Z,964.73
2018-01-16T01:57:39.010Z,964.79
2018-01-16T01:58:38.924Z,964.75
2018-01-16T01:59:38.834Z,964.66
2018-01-16T02:00:38.747Z,964.60
2018-01-16T02:01:38.658Z,964.55
2018-01-16T02:02:38.569Z,964.49
2018-01-16T02:03:38.484Z,964.42
2018-01-16T02:04:38.397Z,964.36
2018-01-16T02:05:38.310Z,964.24
2018-01-16T02:06:38.222Z,964.34
2018-01-16T02:07:38.135Z,964.40
2018-01-16T02:08:38.047Z,964.40
2018-01-16T02:09:37.959Z,964.38
2018-01-16T02:10:37.871Z,964.43
2018-01-16T02:11:37.784Z,964.35
2018-01-16T02:12:37.696Z,964.19
2018-01-16T02:13:37.609Z,964.14
2018-01-16T02:14:37.521Z,964.08
2018-01-16T02:15:37.484Z,964.23
2018-01-16T02:16:37.345Z,964.33
2018-01-16T02:17:37.258Z,964.26
2018-01-16T02:18:37.169Z,964.22
2018-01-16T02:19:37.081Z,964.12
2018-01-16T02:20:36.994Z,964.05
2018-01-16T02:21:36.907Z,964.06
2018-01-16T02:22:36.818Z,964.08
2018-01-16T02:23:36.732Z,963.98
2018-01-16T02:24:36.642Z,963.98
2018-01-16T02:25:36.557Z,963.86
2018-01-16T02:26:36.468Z,963.83
2018-01-16T02:27:36.385Z,963.78
2018-01-16T02:28:36.293Z,963.83
2018-01-16T02:29:36.207Z,963.77
2018-01-16T02:30:36.121Z,963.79
2018-01-16T02:31:36.031Z,963.85
2018-01-16T02:32:35.943Z,963.84
2018-01-16T02:33:35.855Z,963.94
2018-01-16T02:34:35.771Z,963.88
2018-01-16T02:35:35.680Z,963.81
2018-01-16T02:36:35.592Z,963.78
2018-01-16T02:37:35.505Z,963.73
2018-01-16T02:38:35.417Z,963.95
2018-01-16T02:39:35.331Z,963.87
2018-01-16T02:40:35.240Z,963.85
2018-01-16T02:41:35.158Z,963.59
2018-01-16T02:42:35.068Z,963.86
2018-01-16T02:43:34.982Z,963.97
2018-01-16T02:44:34.892Z,964.04
2018-01-16T02:45:34.803Z,963.96
2018-01-16T02:46:34.715Z,963.76
2018-01-16T02:47:34.630Z,963.82
2018-01-16T02:48:34.542Z,963.85
2018-01-16T02:49:34.466Z,963.87
2018-01-16T02:50:34.366Z,964.09
2018-01-16T02:51:34.278Z,964.02
2018-01-16T02:52:34.193Z,963.92
2018-01-16T02:53:34.105Z,963.65
2018-01-16T02:54:34.016Z,963.74
2018-01-16T02:55:33.929Z,963.82
2018-01-16T02:56:33.843Z,963.81
2018-01-16T02:57:33.752Z,963.81
2018-01-16T02:58:33.666Z,963.79
2018-01-16T02:59:33.580Z,963.77
2018-01-16T03:00:33.491Z,963.76
2018-01-16T03:01:33.403Z,963.80
2018-01-16T03:02:33.318Z,963.70
2018-01-16T03:03:33.242Z,963.71
2018-01-16T03:04:33.141Z,963.70
2018-01-16T03:05:33.054Z,963.87
2018-01-16T03:06:32.968Z,963.85
2018-01-16T03:07:32.879Z,963.69
2018-01-16T03:08:32.791Z,963.62
2018-01-16T03:09:32.709Z,963.75
2018-01-16T03:10:32.617Z,963.82
2018-01-16T03:11:32.529Z,963.79
2018-01-16T03:12:32.442Z,963.79
2018-01-16T03:13:32.353Z,963.64
2018-01-16T03:14:32.268Z,963.50
2018-01-16T03:15:32.180Z,963.63
2018-01-16T03:16:32.091Z,963.71
2018-01-16T03:17:32.007Z,963.71
2018-01-16T03:18:31.917Z,963.63
2018-01-16T03:19:31.827Z,963.59
2018-01-16T03:20:31.741Z,963.57
2018-01-16T03:21:31.654Z,963.59
2018-01-16T03:22:31.568Z,963.66
2018-01-16T03:23:31.478Z,963.60
2018-01-16T03:24:31.391Z,963.63
2018-01-16T03:25:31.306Z,963.58
2018-01-16T03:26:31.219Z,963.50
2018-01-16T03:27:31.131Z,963.59
2018-01-16T03:28:31.043Z,963.57
2018-01-16T03:29:30.956Z,963.54
2018-01-16T03:30:30.871Z,963.50
2018-01-16T03:31:30.786Z,963.42
2018-01-16T03:32:30.696Z,963.50
2018-01-16T03:33:30.607Z,963.46
2018-01-16T03:34:30.520Z,963.49
2018-01-16T03:35:30.433Z,963.47
2018-01-16T03:36:30.345Z,963.41
2018-01-16T03:37:30.260Z,963.48
2018-01-16T03:38:30.173Z,963.47
2018-01-16T03:39:30.089Z,963.42
2018-01-16T03:40:29.998Z,963.32
2018-01-16T03:41:29.911Z,963.35
2018-01-16T03:42:29.825Z,963.33
2018-01-16T03:43:29.738Z,963.39
2018-01-16T03:44:29.650Z,963.34
2018-01-16T03:45:29.566Z,963.33
2018-01-16T03:46:29.479Z,963.34
2018-01-16T03:47:29.391Z,963.35
2018-01-16T03:48:29.302Z,963.29
2018-01-16T03:49:29.216Z,963.21
2018-01-16T03:50:29.131Z,963.20
2018-01-16T03:51:29.043Z,963.22
2018-01-16T03:52:28.954Z,963.17
2018-01-16T03:53:28.870Z,963.16
2018-01-16T03:54:28.783Z,963.15
2018-01-16T03:55:28.695Z,963.15
2018-01-16T03:56:28.609Z,963.15
2018-01-16T03:57:28.519Z,963.14
2018-01-16T03:58:28.436Z,963.15
2018-01-16T03:59:28.348Z,963.09
2018-01-16T04:00:28.258Z,963.09
2018-01-16T04:01:28.174Z,963.04
2018-01-16T04:02:28.085Z,963.04
2018-01-16T04:03:27.999Z,962.98
2018-01-16T04:04:27.911Z,962.98
2018-01-16T04:05:27.824Z,962.98
2018-01-16T04:06:27.739Z,962.96
2018-01-16T04:07:27.651Z,962.94
2018-01-16T04:08:27.566Z,962.97
2018-01-16T04:09:27.478Z,962.91
2018-01-16T04:10:27.390Z,962.88
2018-01-16T04:11:27.303Z,962.86
2018-01-16T04:12:27.216Z,962.89
2018-01-16T04:13:27.129Z,962.91
2018-01-16T04:14:27.044Z,962.78
2018-01-16T04:15:26.956Z,962.74
2018-01-16T04:16:26.869Z,962.69
2018-01-16T04:17:26.782Z,962.68
2018-01-16T04:18:26.694Z,962.64
2018-01-16T04:19:26.608Z,962.69
2018-01-16T04:20:26.520Z,962.65
2018-01-16T04:21:26.432Z,962.64
2018-01-16T04:22:26.348Z,962.61
2018-01-16T04:23:26.262Z,962.60
2018-01-16T04:24:26.172Z,962.64
2018-01-16T04:25:26.090Z,962.53
2018-01-16T04:26:25.999Z,962.62
2018-01-16T04:27:25.912Z,962.60
2018-01-16T04:28:25.824Z,962.59
2018-01-16T04:29:25.739Z,962.58
2018-01-16T04:30:25.651Z,962.52
2018-01-16T04:31:25.565Z,962.48
2018-01-16T04:32:25.478Z,962.50
2018-01-16T04:33:25.391Z,962.48
2018-01-16T04:34:25.304Z,962.42
2018-01-16T04:35:25.217Z,962.39
2018-01-16T04:36:25.131Z,962.30
2018-01-16T04:37:25.044Z,962.38
2018-01-16T04:38:24.960Z,962.39
2018-01-16T04:39:24.869Z,962.39
2018-01-16T04:40:24.782Z,962.33
2018-01-16T04:41:24.696Z,962.31
2018-01-16T04:42:24.621Z,962.32
2018-01-16T04:43:24.524Z,962.28
2018-01-16T04:44:24.435Z,962.25
2018-01-16T04:45:24.348Z,962.29
2018-01-16T04:46:24.262Z,962.27
2018-01-16T04:47:24.174Z,962.22
2018-01-16T04:48:24.086Z,962.16
2018-01-16T04:49:24.002Z,962.20
2018-01-16T04:50:23.914Z,962.14
2018-01-16T04:51:23.827Z,962.10
2018-01-16T04:52:23.741Z,962.06
2018-01-16T04:53:23.653Z,962.10
2018-01-16T04:54:23.577Z,962.08
2018-01-16T04:55:23.481Z,962.15
2018-01-16T04:56:23.393Z,962.13
2018-01-16T04:57:23.306Z,962.10
2018-01-16T04:58:23.222Z,962.09
2018-01-16T04:59:23.136Z,962.12
2018-01-16T05:00:23.047Z,962.08
2018-01-16T05:01:22.960Z,962.07
2018-01-16T05:02:22.872Z,962.01
2018-01-16T05:03:22.786Z,962.01
2018-01-16T05:04:22.700Z,962.00
2018-01-16T05:05:22.613Z,961.93
2018-01-16T05:06:22.526Z,961.88
2018-01-16T05:07:22.441Z,961.93
2018-01-16T05:08:22.355Z,961.98
2018-01-16T05:09:22.268Z,961.95
2018-01-16T05:10:22.180Z,961.90
2018-01-16T05:11:22.094Z,961.85
2018-01-16T05:12:22.007Z,961.82
2018-01-16T05:13:21.922Z,961.82
2018-01-16T05:14:21.836Z,961.85
2018-01-16T05:15:21.747Z,961.86
2018-01-16T05:16:21.659Z,961.90
2018-01-16T05:17:21.577Z,961.93
2018-01-16T05:18:21.488Z,961.87
2018-01-16T05:19:21.402Z,961.83
2018-01-16T05:20:21.314Z,961.83
2018-01-16T05:21:21.226Z,961.75
2018-01-16T05:22:21.142Z,961.73
2018-01-16T05:23:21.054Z,961.74
2018-01-16T05:24:20.967Z,961.71
2018-01-16T05:25:20.881Z,961.75
2018-01-16T05:26:20.796Z,961.68
2018-01-16T05:27:20.707Z,961.62
2018-01-16T05:28:20.621Z,961.55
2018-01-16T05:29:20.534Z,961.49
2018-01-16T05:30:20.448Z,961.46
2018-01-16T05:31:20.362Z,961.44
2018-01-16T05:32:20.275Z,961.47
2018-01-16T05:33:20.187Z,961.44
2018-01-16T05:34:20.101Z,961.44
2018-01-16T05:35:20.015Z,961.42
2018-01-16T05:36:19.928Z,961.34
2018-01-16T05:37:19.840Z,961.33
2018-01-16T05:38:19.754Z,961.29
2018-01-16T05:39:19.668Z,961.35
2018-01-16T05:40:19.580Z,961.38
2018-01-16T05:41:19.493Z,961.44
2018-01-16T05:42:19.407Z,961.40
2018-01-16T05:43:19.324Z,961.32
2018-01-16T05:44:19.234Z,961.33
2018-01-16T05:45:19.148Z,961.32
2018-01-16T05:46:19.060Z,961.25
2018-01-16T05:47:18.974Z,961.29
2018-01-16T05:48:18.887Z,961.24
2018-01-16T05:49:18.800Z,961.28
2018-01-16T05:50:18.717Z,961.25
2018-01-16T05:51:18.639Z,961.20
2018-01-16T05:52:18.542Z,961.21
2018-01-16T05:53:18.454Z,961.26
2018-01-16T05:54:18.369Z,961.21
2018-01-16T05:55:18.284Z,961.14
2018-01-16T05:56:18.194Z,961.18
2018-01-16T05:57:18.107Z,961.22
2018-01-16T05:58:18.022Z,961.27
2018-01-16T05:59:17.936Z,961.23
2018-01-16T06:00:17.848Z,961.15
2018-01-16T06:01:17.763Z,961.15
2018-01-16T06:02:17.675Z,961.23
2018-01-16T06:03:17.590Z,961.25
2018-01-16T06:04:17.501Z,961.22
2018-01-16T06:05:17.416Z,961.09
2018-01-16T06:06:17.330Z,961.06
2018-01-16T06:07:17.241Z,961.06
2018-01-16T06:08:17.154Z,961.09
2018-01-16T06:09:17.071Z,961.11
2018-01-16T06:10:16.981Z,961.05
2018-01-16T06:11:16.897Z,960.98
2018-01-16T06:12:16.811Z,961.02
2018-01-16T06:13:16.722Z,961.03
2018-01-16T06:14:16.636Z,960.96
2018-01-16T06:15:16.549Z,960.96
2018-01-16T06:16:16.461Z,960.95
2018-01-16T06:17:16.376Z,960.98
2018-01-16T06:18:16.297Z,960.99
2018-01-16T06:19:16.203Z,960.91
2018-01-16T06:20:16.117Z,960.93
2018-01-16T06:21:16.032Z,960.97
2018-01-16T06:22:15.944Z,961.00
2018-01-16T06:23:15.858Z,960.98
2018-01-16T06:24:15.780Z,960.94
2018-01-16T06:25:15.685Z,960.99
2018-01-16T06:26:15.599Z,960.97
2018-01-16T06:27:15.511Z,960.93
2018-01-16T06:28:15.423Z,960.87
2018-01-16T06:29:15.340Z,960.84
2018-01-16T06:30:15.252Z,960.82
2018-01-16T06:31:15.168Z,960.84
2018-01-16T06:32:15.078Z,960.88
2018-01-16T06:33:14.993Z,960.79
2018-01-16T06:34:14.906Z,960.76
2018-01-16T06:35:14.821Z,960.74
2018-01-16T06:36:14.733Z,960.74
2018-01-16T06:37:14.646Z,960.77
2018-01-16T06:38:14.560Z,960.79
2018-01-16T06:39:14.475Z,960.75
2018-01-16T06:40:14.386Z,960.77
2018-01-16T06:41:14.302Z,960.77
2018-01-16T06:42:14.213Z,960.78
2018-01-16T06:43:14.130Z,960.73
2018-01-16T06:44:14.041Z,960.67
2018-01-16T06:45:13.955Z,960.69
2018-01-16T06:46:13.873Z,960.59
2018-01-16T06:47:13.783Z,960.60
2018-01-16T06:48:13.696Z,960.64
2018-01-16T06:49:13.609Z,960.64
2018-01-16T06:50:13.522Z,960.61
2018-01-16T06:51:13.438Z,960.64
2018-01-16T06:52:13.351Z,960.56
2018-01-16T06:53:13.262Z,960.55
2018-01-16T06:54:13.183Z,960.52
2018-01-16T06:55:13.090Z,960.50
2018-01-16T06:56:13.004Z,960.47
2018-01-16T06:57:12.916Z,960.47
2018-01-16T06:58:12.832Z,960.50
2018-01-16T06:59:12.745Z,960.54
2018-01-16T07:00:12.658Z,960.48
2018-01-16T07:01:12.571Z,960.46
2018-01-16T07:02:12.486Z,960.43
2018-01-16T07:03:12.400Z,960.41
2018-01-16T07:04:12.315Z,960.35
2018-01-16T07:05:12.246Z,960.35
2018-01-16T07:06:12.144Z,960.37
2018-01-16T07:07:12.055Z,960.39
2018-01-16T07:08:11.968Z,960.34
2018-01-16T07:09:11.882Z,960.32
2018-01-16T07:10:11.795Z,960.28
2018-01-16T07:11:11.711Z,960.34
2018-01-16T07:12:11.622Z,960.30
2018-01-16T07:13:11.536Z,960.30
2018-01-16T07:14:11.451Z,960.30
2018-01-16T07:15:11.364Z,960.28
2018-01-16T07:16:11.281Z,960.24
2018-01-16T07:17:11.192Z,960.32
2018-01-16T07:18:11.153Z,960.30
2018-01-16T07:19:11.110Z,960.25
2018-01-16T07:20:10.933Z,960.29
2018-01-16T07:21:10.848Z,960.30
2018-01-16T07:22:10.763Z,960.31
2018-01-16T07:23:10.675Z,960.34
2018-01-16T07:24:10.588Z,960.35
2018-01-16T07:25:10.505Z,960.30
2018-01-16T07:26:10.419Z,960.29
2018-01-16T07:27:10.332Z,960.28
2018-01-16T07:28:10.243Z,960.25
2018-01-16T07:29:10.160Z,960.25
2018-01-16T07:30:10.072Z,960.25
2018-01-16T07:31:09.987Z,960.24
2018-01-16T07:32:09.900Z,960.28
2018-01-16T07:33:09.815Z,960.27
2018-01-16T07:34:09.730Z,960.27
2018-01-16T07:35:09.644Z,960.28
2018-01-16T07:36:09.556Z,960.28
2018-01-16T07:37:09.469Z,960.23
2018-01-16T07:38:09.384Z,960.22
2018-01-16T07:39:09.301Z,960.22
2018-01-16T07:40:09.211Z,960.23
2018-01-16T07:41:09.126Z,960.22
2018-01-16T07:42:09.040Z,960.18
2018-01-16T07:43:08.955Z,960.12
2018-01-16T07:44:08.868Z,960.14
2018-01-16T07:45:08.784Z,960.08
2018-01-16T07:46:08.702Z,960.09
2018-01-16T07:47:08.612Z,960.02
2018-01-16T07:48:08.528Z,960.05
2018-01-16T07:49:08.439Z,960.03
2018-01-16T07:50:08.356Z,960.03
2018-01-16T07:51:08.270Z,960.07
2018-01-16T07:52:08.182Z,960.03
2018-01-16T07:53:08.097Z,960.01
2018-01-16T07:54:08.011Z,960.02
2018-01-16T07:55:07.932Z,960.03
2018-01-16T07:56:07.841Z,960.11
2018-01-16T07:57:07.755Z,960.11
2018-01-16T07:58:07.668Z,960.19
2018-01-16T07:59:07.587Z,960.10
2018-01-16T08:00:07.496Z,960.10
2018-01-16T08:01:07.415Z,960.06
2018-01-16T08:02:07.325Z,960.09
2018-01-16T08:03:07.242Z,960.10
2018-01-16T08:04:07.155Z,959.92
2018-01-16T08:05:07.070Z,959.92
2018-01-16T08:06:06.986Z,959.92
2018-01-16T08:07:06.900Z,959.90
2018-01-16T08:08:06.812Z,959.82
2018-01-16T08:09:06.770Z,959.86
2018-01-16T08:10:06.640Z,959.73
2018-01-16T08:11:06.558Z,959.75
2018-01-16T08:12:06.468Z,959.79
2018-01-16T08:13:06.384Z,959.79
2018-01-16T08:14:06.298Z,959.76
2018-01-16T08:15:06.214Z,959.74
2018-01-16T08:16:06.126Z,959.55
2018-01-16T08:17:06.043Z,959.53
2018-01-16T08:18:05.956Z,959.54
2018-01-16T08:19:05.872Z,959.54
2018-01-16T08:20:05.783Z,959.47
2018-01-16T08:21:05.700Z,959.45
2018-01-16T08:22:05.614Z,959.44
2018-01-16T08:23:05.527Z,959.39
2018-01-16T08:24:05.442Z,959.36
2018-01-16T08:25:05.358Z,959.32
2018-01-16T08:26:05.272Z,959.35
2018-01-16T08:27:05.186Z,959.30
2018-01-16T08:28:05.103Z,959.34
2018-01-16T08:29:05.015Z,959.41
2018-01-16T08:30:04.929Z,959.30
2018-01-16T08:31:04.843Z,959.35
2018-01-16T08:32:04.761Z,959.32
2018-01-16T08:33:04.672Z,959.26
2018-01-16T08:34:04.587Z,959.28
2018-01-16T08:35:04.504Z,959.28
2018-01-16T08:36:04.416Z,959.28
2018-01-16T08:37:04.331Z,959.28
2018-01-16T08:38:04.248Z,959.31
2018-01-16T08:39:04.163Z,959.28
2018-01-16T08:40:04.076Z,959.35
2018-01-16T08:41:03.991Z,959.30
2018-01-16T08:42:03.908Z,959.29
2018-01-16T08:43:03.819Z,959.30
2018-01-16T08:44:03.734Z,959.37
2018-01-16T08:45:03.649Z,959.37
2018-01-16T08:46:03.564Z,959.31
2018-01-16T08:47:03.480Z,959.37
2018-01-16T08:48:03.393Z,959.38
2018-01-16T08:49:03.309Z,959.31
2018-01-16T08:50:03.224Z,959.37
2018-01-16T08:51:03.140Z,959.43
2018-01-16T08:52:03.055Z,959.43
2018-01-16T08:53:02.968Z,959.45
2018-01-16T08:54:02.884Z,959.48
2018-01-16T08:55:02.798Z,959.52
2018-01-16T08:56:02.715Z,959.46
2018-01-16T08:57:02.633Z,959.45
2018-01-16T08:58:02.544Z,959.46
2018-01-16T08:59:02.459Z,959.50
2018-01-16T09:00:02.376Z,959.37
2018-01-16T09:01:02.289Z,959.39
2018-01-16T09:02:02.209Z,959.35
2018-01-16T09:03:02.121Z,959.34
2018-01-16T09:04:02.036Z,959.38
2018-01-16T09:05:01.950Z,959.34
2018-01-16T09:06:01.867Z,959.43
2018-01-16T09:07:01.784Z,959.44
2018-01-16T09:08:01.698Z,959.43
2018-01-16T09:09:01.612Z,959.37
2018-01-16T09:10:01.528Z,959.40
2018-01-16T09:11:01.445Z,959.43
2018-01-16T09:12:01.360Z,959.34
2018-01-16T09:13:01.274Z,959.35
2018-01-16T09:14:01.192Z,959.30
2018-01-16T09:15:01.107Z,959.30
2018-01-16T09:16:01.022Z,959.31
2018-01-16T09:17:00.940Z,959.35
2018-01-16T09:18:00.861Z,959.37
2018-01-16T09:19:00.771Z,959.36
2018-01-16T09:20:00.685Z,959.34
2018-01-16T09:21:00.602Z,959.40
2018-01-16T09:22:00.520Z,959.25
2018-01-16T09:23:00.434Z,959.41
2018-01-16T09:24:00.352Z,959.32
2018-01-16T09:25:00.266Z,959.27
2018-01-16T09:26:00.191Z,959.28
2018-01-16T09:27:00.100Z,959.27
2018-01-16T09:28:00.021Z,959.28
2018-01-16T09:28:59.935Z,959.33
2018-01-16T09:29:59.848Z,959.26
2018-01-16T09:30:59.767Z,959.33
2018-01-16T09:31:59.682Z,959.41
2018-01-16T09:32:59.600Z,959.32
2018-01-16T09:33:59.514Z,959.40
2018-01-16T09:34:59.433Z,959.43
2018-01-16T09:35:59.347Z,959.47
2018-01-16T09:36:59.265Z,959.43
2018-01-16T09:37:59.181Z,959.41
2018-01-16T09:38:59.099Z,959.43
2018-01-16T09:39:59.015Z,959.46
2018-01-16T09:40:58.932Z,959.47
2018-01-16T09:41:58.848Z,959.38
2018-01-16T09:42:58.770Z,959.46
2018-01-16T09:43:58.682Z,959.50
2018-01-16T09:44:58.599Z,959.49
2018-01-16T09:45:58.520Z,959.48
2018-01-16T09:46:58.434Z,959.40
2018-01-16T09:47:58.351Z,959.42
2018-01-16T09:48:58.267Z,959.45
2018-01-16T09:49:58.184Z,959.42
2018-01-16T09:50:58.103Z,959.40
2018-01-16T09:51:58.019Z,959.52
2018-01-16T09:52:57.936Z,959.50
2018-01-16T09:53:57.853Z,959.58
2018-01-16T09:54:57.770Z,959.66
2018-01-16T09:55:57.687Z,959.64
2018-01-16T09:56:57.604Z,959.60
2018-01-16T09:57:57.521Z,959.65
2018-01-16T09:58:57.439Z,959.61
2018-01-16T09:59:57.355Z,959.62
2018-01-16T10:00:57.273Z,959.65
2018-01-16T10:01:57.189Z,959.61
2018-01-16T10:02:57.109Z,959.67
2018-01-16T10:03:57.025Z,959.70
2018-01-16T10:04:56.942Z,959.61
2018-01-16T10:05:56.860Z,959.64
2018-01-16T10:06:56.776Z,959.59
2018-01-16T10:07:56.694Z,959.56
2018-01-16T10:08:56.610Z,959.62
2018-01-16T10:09:56.528Z,959.52
2018-01-16T10:10:56.447Z,959.41
2018-01-16T10:11:56.363Z,959.29
2018-01-16T10:12:56.279Z,959.27
2018-01-16T10:13:56.198Z,959.27
2018-01-16T10:14:56.117Z,959.42
2018-01-16T10:15:56.031Z,959.44
2018-01-16T10:16:55.950Z,959.37
2018-01-16T10:17:55.873Z,959.45
2018-01-16T10:18:55.785Z,959.35
2018-01-16T10:19:55.704Z,959.36
2018-01-16T10:20:55.619Z,959.44
2018-01-16T10:21:55.549Z,959.44
2018-01-16T10:22:55.457Z,959.41
2018-01-16T10:23:55.373Z,959.33
2018-01-16T10:24:55.290Z,959.37
2018-01-16T10:25:55.209Z,959.35
2018-01-16T10:26:55.125Z,959.37
2018-01-16T10:27:55.043Z,959.29
2018-01-16T10:28:54.960Z,959.38
2018-01-16T10:29:54.881Z,959.35
2018-01-16T10:30:54.796Z,959.38
2018-01-16T10:31:54.714Z,959.35
2018-01-16T10:32:54.631Z,959.28
2018-01-16T10:33:54.551Z,959.29
2018-01-16T10:34:54.466Z,959.33
2018-01-16T10:35:54.383Z,959.29
2018-01-16T10:36:54.303Z,959.33
2018-01-16T10:37:54.220Z,959.31
2018-01-16T10:38:54.140Z,959.43
2018-01-16T10:39:54.055Z,959.33
2018-01-16T10:40:53.972Z,959.41
2018-01-16T10:41:53.891Z,959.41
2018-01-16T10:42:53.809Z,959.36
2018-01-16T10:43:53.726Z,959.31
2018-01-16T10:44:53.645Z,959.38
2018-01-16T10:45:53.562Z,959.37
2018-01-16T10:46:53.482Z,959.27
2018-01-16T10:47:53.397Z,959.27
2018-01-16T10:48:53.320Z,959.25
2018-01-16T10:49:53.234Z,959.34
2018-01-16T10:50:53.153Z,959.33
2018-01-16T10:51:53.069Z,959.35
2018-01-16T10:52:52.988Z,959.32
2018-01-16T10:53:52.907Z,959.29
2018-01-16T10:54:52.824Z,959.34
2018-01-16T10:55:52.741Z,959.34
2018-01-16T10:56:52.662Z,959.37
2018-01-16T10:57:52.580Z,959.29
2018-01-16T10:58:52.498Z,959.34
2018-01-16T10:59:52.418Z,959.25
2018-01-16T11:00:52.332Z,959.34
2018-01-16T11:01:52.252Z,959.41
2018-01-16T11:02:52.186Z,959.37
2018-01-16T11:03:52.086Z,959.34
2018-01-16T11:04:52.004Z,959.35
2018-01-16T11:05:51.925Z,959.37
2018-01-16T11:06:51.842Z,959.37
2018-01-16T11:07:51.758Z,959.36
2018-01-16T11:08:51.676Z,959.37
2018-01-16T11:09:51.595Z,959.35
2018-01-16T11:10:51.514Z,959.31
2018-01-16T11:11:51.430Z,959.31
2018-01-16T11:12:51.349Z,959.31
2018-01-16T11:13:51.268Z,959.30
2018-01-16T11:14:51.186Z,959.23
2018-01-16T11:15:51.103Z,959.24
2018-01-16T11:16:51.023Z,959.29
2018-01-16T11:17:50.939Z,959.21
2018-01-16T11:18:50.859Z,959.20
2018-01-16T11:19:50.774Z,959.20
2018-01-16T11:20:50.694Z,959.11
2018-01-16T11:21:50.611Z,959.02
2018-01-16T11:22:50.531Z,958.95
2018-01-16T11:23:50.448Z,958.89
2018-01-16T11:24:50.366Z,958.84
2018-01-16T11:25:50.291Z,958.73
2018-01-16T11:26:50.202Z,958.75
2018-01-16T11:27:50.120Z,958.66
2018-01-16T11:28:50.040Z,958.60
2018-01-16T11:29:49.959Z,958.62
2018-01-16T11:30:49.878Z,958.63
2018-01-16T11:31:49.796Z,958.67
2018-01-16T11:32:49.718Z,958.72
2018-01-16T11:33:49.636Z,958.78
2018-01-16T11:34:49.555Z,958.79
2018-01-16T11:35:49.476Z,958.80
2018-01-16T11:36:49.394Z,958.74
2018-01-16T11:37:49.314Z,958.71
2018-01-16T11:38:49.233Z,958.69
2018-01-16T11:39:49.161Z,958.70
2018-01-16T11:40:49.071Z,958.78
2018-01-16T11:41:48.991Z,958.80
2018-01-16T11:42:48.909Z,958.77
2018-01-16T11:43:48.828Z,958.77
2018-01-16T11:44:48.755Z,958.70
2018-01-16T11:45:48.681Z,958.53
2018-01-16T11:46:48.585Z,958.40
2018-01-16T11:47:48.505Z,958.34
2018-01-16T11:48:48.423Z,958.27
2018-01-16T11:49:48.346Z,958.35
2018-01-16T11:50:48.262Z,958.35
2018-01-16T11:51:48.186Z,958.31
2018-01-16T11:52:48.099Z,958.26
2018-01-16T11:53:48.019Z,958.29
2018-01-16T11:54:47.938Z,958.41
2018-01-16T11:55:47.858Z,958.40
2018-01-16T11:56:47.774Z,958.44
2018-01-16T11:57:47.695Z,958.42
2018-01-16T11:58:47.613Z,958.51
2018-01-16T11:59:47.531Z,958.50
2018-01-16T12:00:47.449Z,958.48
2018-01-16T12:01:47.367Z,958.47
2018-01-16T12:02:47.286Z,958.51
2018-01-16T12:03:47.205Z,958.56
2018-01-16T12:04:47.121Z,958.48
2018-01-16T12:05:47.051Z,958.45
2018-01-16T12:06:46.961Z,958.37
2018-01-16T12:07:46.878Z,958.36
2018-01-16T12:08:46.798Z,958.44
2018-01-16T12:09:46.714Z,958.45
2018-01-16T12:10:46.633Z,958.41
2018-01-16T12:11:46.553Z,958.39
2018-01-16T12:12:46.469Z,958.36
2018-01-16T12:13:46.390Z,958.32
2018-01-16T12:14:46.309Z,958.28
2018-01-16T12:15:46.226Z,958.26
2018-01-16T12:16:46.145Z,958.35
2018-01-16T12:17:46.076Z,958.35
2018-01-16T12:18:45.982Z,958.20
2018-01-16T12:19:45.899Z,958.21
2018-01-16T12:20:45.816Z,958.23
2018-01-16T12:21:45.736Z,958.21
2018-01-16T12:22:45.655Z,958.15
2018-01-16T12:23:45.574Z,958.10
2018-01-16T12:24:45.497Z,958.16
2018-01-16T12:25:45.412Z,958.03
2018-01-16T12:26:45.333Z,957.94
2018-01-16T12:27:45.251Z,957.95